sensor_id;sensor_type;location;lat;lon;timestamp;pressure;altitude;pressure_sealevel;temperature;humidity
63009;BME280;49099;28.428;-16.488;2023-04-01T00:01:56;99029.94;;;25.67;36.98
63009;BME280;49099;28.428;-16.488;2023-04-01T00:04:23;99036.78;;;25.61;35.76
63009;BME280;49099;28.428;-16.488;2023-04-01T00:06:50;99033.97;;;25.57;35.99
63009;BME280;49099;28.428;-16.488;2023-04-01T00:09:18;99040.53;;;25.56;36.20
63009;BME280;49099;28.428;-16.488;2023-04-01T00:11:45;99030.38;;;25.53;36.40
63009;BME280;49099;28.428;-16.488;2023-04-01T00:14:13;99031.97;;;25.54;36.52
63009;BME280;49099;28.428;-16.488;2023-04-01T00:16:40;99033.53;;;25.55;36.75
63009;BME280;49099;28.428;-16.488;2023-04-01T00:19:07;99036.78;;;25.45;36.83
63009;BME280;49099;28.428;-16.488;2023-04-01T00:21:35;99034.75;;;25.42;37.37
63009;BME280;49099;28.428;-16.488;2023-04-01T00:24:03;99032.94;;;25.46;36.71
63009;BME280;49099;28.428;-16.488;2023-04-01T00:26:30;99035.63;;;25.46;36.77
63009;BME280;49099;28.428;-16.488;2023-04-01T00:28:58;99030.97;;;25.31;37.13
63009;BME280;49099;28.428;-16.488;2023-04-01T00:31:25;99032.78;;;25.26;37.22
63009;BME280;49099;28.428;-16.488;2023-04-01T00:33:53;99032.91;;;25.30;36.85
63009;BME280;49099;28.428;-16.488;2023-04-01T00:36:21;99023.81;;;25.38;36.89
63009;BME280;49099;28.428;-16.488;2023-04-01T00:38:49;99018.28;;;25.35;35.76
63009;BME280;49099;28.428;-16.488;2023-04-01T00:41:18;99017.41;;;25.31;34.91
63009;BME280;49099;28.428;-16.488;2023-04-01T00:43:48;99017.41;;;25.31;35.68
63009;BME280;49099;28.428;-16.488;2023-04-01T00:46:15;99028.44;;;25.38;35.17
63009;BME280;49099;28.428;-16.488;2023-04-01T00:48:51;99022.31;;;25.41;36.63
63009;BME280;49099;28.428;-16.488;2023-04-01T00:51:22;99012.22;;;25.41;35.58
63009;BME280;49099;28.428;-16.488;2023-04-01T00:53:52;99006.72;;;25.38;34.34
63009;BME280;49099;28.428;-16.488;2023-04-01T00:56:51;99016.25;;;25.32;32.24
63009;BME280;49099;28.428;-16.488;2023-04-01T00:59:25;99023.59;;;25.15;33.69
63009;BME280;49099;28.428;-16.488;2023-04-01T01:01:53;99025.59;;;25.18;34.24
63009;BME280;49099;28.428;-16.488;2023-04-01T01:04:32;99016.50;;;25.26;33.88
63009;BME280;49099;28.428;-16.488;2023-04-01T01:15:24;99001.25;;;25.06;34.04
63009;BME280;49099;28.428;-16.488;2023-04-01T01:18:03;99005.28;;;25.12;34.13
63009;BME280;49099;28.428;-16.488;2023-04-01T01:31:22;99015.34;;;25.12;33.00
63009;BME280;49099;28.428;-16.488;2023-04-01T01:36:42;99005.97;;;25.09;31.10
63009;BME280;49099;28.428;-16.488;2023-04-01T01:39:12;98996.25;;;25.08;30.96
63009;BME280;49099;28.428;-16.488;2023-04-01T01:41:42;98998.97;;;25.08;30.45
63009;BME280;49099;28.428;-16.488;2023-04-01T01:44:12;99012.78;;;25.03;28.65
63009;BME280;49099;28.428;-16.488;2023-04-01T01:46:42;99014.84;;;24.94;30.22
63009;BME280;49099;28.428;-16.488;2023-04-01T01:49:12;99012.56;;;24.96;30.43
63009;BME280;49099;28.428;-16.488;2023-04-01T01:51:39;99004.94;;;24.86;31.21
63009;BME280;49099;28.428;-16.488;2023-04-01T01:54:12;99007.53;;;24.82;31.63
63009;BME280;49099;28.428;-16.488;2023-04-01T01:56:41;99003.78;;;24.87;32.00
63009;BME280;49099;28.428;-16.488;2023-04-01T01:59:11;99005.38;;;24.88;30.37
63009;BME280;49099;28.428;-16.488;2023-04-01T02:01:42;99008.00;;;24.84;29.83
63009;BME280;49099;28.428;-16.488;2023-04-01T02:04:13;99009.31;;;24.90;30.84
63009;BME280;49099;28.428;-16.488;2023-04-01T02:06:50;99011.34;;;24.93;29.33
63009;BME280;49099;28.428;-16.488;2023-04-01T02:09:20;99012.72;;;24.87;28.82
63009;BME280;49099;28.428;-16.488;2023-04-01T02:11:52;99003.59;;;24.80;31.81
63009;BME280;49099;28.428;-16.488;2023-04-01T02:14:22;99008.13;;;24.76;30.83
63009;BME280;49099;28.428;-16.488;2023-04-01T02:19:23;99001.47;;;24.73;32.08
63009;BME280;49099;28.428;-16.488;2023-04-01T02:21:56;99006.09;;;24.72;31.78
63009;BME280;49099;28.428;-16.488;2023-04-01T02:24:26;98992.44;;;24.69;31.16
63009;BME280;49099;28.428;-16.488;2023-04-01T02:26:54;98999.34;;;24.66;30.42
63009;BME280;49099;28.428;-16.488;2023-04-01T02:29:23;99001.81;;;24.71;30.33
63009;BME280;49099;28.428;-16.488;2023-04-01T02:31:53;99004.16;;;24.73;32.04
63009;BME280;49099;28.428;-16.488;2023-04-01T02:34:23;99011.19;;;24.74;31.74
63009;BME280;49099;28.428;-16.488;2023-04-01T02:36:52;99002.38;;;24.77;32.09
63009;BME280;49099;28.428;-16.488;2023-04-01T02:39:21;98998.06;;;24.76;32.29
63009;BME280;49099;28.428;-16.488;2023-04-01T02:41:48;98998.06;;;24.76;32.64
63009;BME280;49099;28.428;-16.488;2023-04-01T02:44:15;98993.25;;;24.69;33.03
63009;BME280;49099;28.428;-16.488;2023-04-01T02:46:43;98994.59;;;24.63;33.53
63009;BME280;49099;28.428;-16.488;2023-04-01T02:49:10;98990.56;;;24.57;33.38
63009;BME280;49099;28.428;-16.488;2023-04-01T02:51:38;98988.53;;;24.54;32.76
63009;BME280;49099;28.428;-16.488;2023-04-01T02:54:05;99003.25;;;24.53;32.22
63009;BME280;49099;28.428;-16.488;2023-04-01T02:56:32;99001.19;;;24.50;31.59
63009;BME280;49099;28.428;-16.488;2023-04-01T02:58:59;99005.16;;;24.53;30.45
63009;BME280;49099;28.428;-16.488;2023-04-01T03:01:26;98998.34;;;24.59;30.33
63009;BME280;49099;28.428;-16.488;2023-04-01T03:03:53;98987.63;;;24.62;30.17
63009;BME280;49099;28.428;-16.488;2023-04-01T03:06:21;98990.75;;;24.64;29.58
63009;BME280;49099;28.428;-16.488;2023-04-01T03:08:48;98983.75;;;24.63;27.76
63009;BME280;49099;28.428;-16.488;2023-04-01T03:11:15;98989.88;;;24.60;28.94
63009;BME280;49099;28.428;-16.488;2023-04-01T03:13:42;98978.91;;;24.57;28.63
63009;BME280;49099;28.428;-16.488;2023-04-01T03:16:09;99010.47;;;24.49;36.07
63009;BME280;49099;28.428;-16.488;2023-04-01T03:18:37;98990.28;;;24.34;40.07
63009;BME280;49099;28.428;-16.488;2023-04-01T03:23:45;98990.44;;;24.13;38.76
63009;BME280;49099;28.428;-16.488;2023-04-01T03:26:12;98989.06;;;24.07;36.65
63009;BME280;49099;28.428;-16.488;2023-04-01T03:28:40;98992.34;;;24.13;36.03
63009;BME280;49099;28.428;-16.488;2023-04-01T03:31:07;99000.00;;;24.11;36.31
63009;BME280;49099;28.428;-16.488;2023-04-01T03:33:35;98986.66;;;24.18;35.92
63009;BME280;49099;28.428;-16.488;2023-04-01T03:36:03;98978.88;;;24.16;35.34
63009;BME280;49099;28.428;-16.488;2023-04-01T03:38:34;98979.81;;;24.08;36.33
63009;BME280;49099;28.428;-16.488;2023-04-01T03:41:02;98974.81;;;24.10;34.73
63009;BME280;49099;28.428;-16.488;2023-04-01T03:43:29;98978.22;;;24.07;32.79
63009;BME280;49099;28.428;-16.488;2023-04-01T03:45:56;98973.59;;;24.08;32.59
63009;BME280;49099;28.428;-16.488;2023-04-01T03:48:26;98972.91;;;24.11;31.63
63009;BME280;49099;28.428;-16.488;2023-04-01T03:50:53;98978.69;;;24.09;30.90
63009;BME280;49099;28.428;-16.488;2023-04-01T03:53:21;98961.97;;;24.07;31.95
63009;BME280;49099;28.428;-16.488;2023-04-01T03:55:48;98953.72;;;24.04;32.00
63009;BME280;49099;28.428;-16.488;2023-04-01T03:58:17;98966.25;;;23.96;32.06
63009;BME280;49099;28.428;-16.488;2023-04-01T04:00:45;98970.31;;;24.02;32.54
63009;BME280;49099;28.428;-16.488;2023-04-01T04:03:12;98976.31;;;23.96;32.95
63009;BME280;49099;28.428;-16.488;2023-04-01T04:05:46;98968.31;;;23.99;32.51
63009;BME280;49099;28.428;-16.488;2023-04-01T04:08:14;98961.06;;;24.03;31.69
63009;BME280;49099;28.428;-16.488;2023-04-01T04:10:41;98972.81;;;24.07;31.02
63009;BME280;49099;28.428;-16.488;2023-04-01T04:13:09;98954.50;;;24.04;30.21
63009;BME280;49099;28.428;-16.488;2023-04-01T04:15:36;98975.75;;;24.14;30.99
63009;BME280;49099;28.428;-16.488;2023-04-01T04:18:05;98975.53;;;24.07;32.93
63009;BME280;49099;28.428;-16.488;2023-04-01T04:20:32;98985.56;;;23.95;33.38
63009;BME280;49099;28.428;-16.488;2023-04-01T04:23:00;98986.38;;;23.95;34.02
63009;BME280;49099;28.428;-16.488;2023-04-01T04:25:27;98984.91;;;23.98;34.75
63009;BME280;49099;28.428;-16.488;2023-04-01T04:27:54;98987.72;;;24.01;35.01
63009;BME280;49099;28.428;-16.488;2023-04-01T04:30:21;98990.91;;;23.91;34.98
63009;BME280;49099;28.428;-16.488;2023-04-01T04:32:48;98990.66;;;23.72;35.38
63009;BME280;49099;28.428;-16.488;2023-04-01T04:35:16;98985.59;;;23.70;35.52
63009;BME280;49099;28.428;-16.488;2023-04-01T04:37:43;98988.06;;;23.75;35.12
63009;BME280;49099;28.428;-16.488;2023-04-01T04:40:10;98977.34;;;23.79;34.66
63009;BME280;49099;28.428;-16.488;2023-04-01T04:42:37;98978.47;;;23.78;32.51
63009;BME280;49099;28.428;-16.488;2023-04-01T04:45:05;98981.97;;;23.78;31.45
63009;BME280;49099;28.428;-16.488;2023-04-01T04:47:32;98988.63;;;23.81;31.09
63009;BME280;49099;28.428;-16.488;2023-04-01T04:49:59;98973.50;;;23.80;32.50
63009;BME280;49099;28.428;-16.488;2023-04-01T04:52:26;98983.78;;;23.74;32.15
63009;BME280;49099;28.428;-16.488;2023-04-01T04:54:53;98983.31;;;23.72;32.05
63009;BME280;49099;28.428;-16.488;2023-04-01T04:57:20;98985.72;;;23.74;30.75
63009;BME280;49099;28.428;-16.488;2023-04-01T04:59:48;98983.78;;;23.74;29.69
63009;BME280;49099;28.428;-16.488;2023-04-01T05:02:15;98970.47;;;23.69;29.82
63009;BME280;49099;28.428;-16.488;2023-04-01T05:04:42;98969.34;;;23.70;30.61
63009;BME280;49099;28.428;-16.488;2023-04-01T05:07:10;98974.41;;;23.72;29.48
63009;BME280;49099;28.428;-16.488;2023-04-01T05:09:37;98990.00;;;23.75;29.82
63009;BME280;49099;28.428;-16.488;2023-04-01T05:12:04;98990.31;;;23.73;31.53
63009;BME280;49099;28.428;-16.488;2023-04-01T05:14:32;98985.25;;;23.72;31.18
63009;BME280;49099;28.428;-16.488;2023-04-01T05:16:59;98980.75;;;23.76;31.43
63009;BME280;49099;28.428;-16.488;2023-04-01T05:19:26;98977.78;;;23.81;31.39
63009;BME280;49099;28.428;-16.488;2023-04-01T05:21:53;98995.06;;;23.76;31.17
63009;BME280;49099;28.428;-16.488;2023-04-01T05:24:20;98982.53;;;23.72;31.65
63009;BME280;49099;28.428;-16.488;2023-04-01T05:26:47;98971.47;;;23.65;31.23
63009;BME280;49099;28.428;-16.488;2023-04-01T05:29:14;98988.19;;;23.67;31.06
63009;BME280;49099;28.428;-16.488;2023-04-01T05:31:41;98989.19;;;23.62;31.12
63009;BME280;49099;28.428;-16.488;2023-04-01T05:34:08;98986.94;;;23.64;32.25
63009;BME280;49099;28.428;-16.488;2023-04-01T05:36:36;98993.13;;;23.65;32.58
63009;BME280;49099;28.428;-16.488;2023-04-01T05:39:03;98988.50;;;23.65;32.95
63009;BME280;49099;28.428;-16.488;2023-04-01T05:41:30;98989.09;;;23.71;33.37
63009;BME280;49099;28.428;-16.488;2023-04-01T05:43:57;98974.88;;;23.74;32.86
63009;BME280;49099;28.428;-16.488;2023-04-01T05:46:24;98987.38;;;23.78;32.33
63009;BME280;49099;28.428;-16.488;2023-04-01T05:48:51;98998.44;;;23.73;31.87
63009;BME280;49099;28.428;-16.488;2023-04-01T05:51:18;98984.56;;;23.62;33.86
63009;BME280;49099;28.428;-16.488;2023-04-01T05:53:45;98980.72;;;23.51;31.51
63009;BME280;49099;28.428;-16.488;2023-04-01T05:56:13;99006.22;;;23.50;30.87
63009;BME280;49099;28.428;-16.488;2023-04-01T05:58:40;99012.72;;;23.49;32.02
63009;BME280;49099;28.428;-16.488;2023-04-01T06:01:09;98996.91;;;23.39;35.00
63009;BME280;49099;28.428;-16.488;2023-04-01T06:03:42;98997.59;;;23.36;33.62
63009;BME280;49099;28.428;-16.488;2023-04-01T06:06:23;99017.69;;;23.35;31.30
63009;BME280;49099;28.428;-16.488;2023-04-01T06:08:52;99015.44;;;23.37;33.15
63009;BME280;49099;28.428;-16.488;2023-04-01T06:11:40;99012.28;;;23.35;33.68
63009;BME280;49099;28.428;-16.488;2023-04-01T06:23:32;99014.75;;;23.40;31.98
63009;BME280;49099;28.428;-16.488;2023-04-01T06:26:15;99017.53;;;23.31;33.34
63009;BME280;49099;28.428;-16.488;2023-04-01T06:45:31;99019.41;;;23.19;30.12
63009;BME280;49099;28.428;-16.488;2023-04-01T06:53:21;99029.59;;;23.22;31.71
63009;BME280;49099;28.428;-16.488;2023-04-01T06:55:53;99031.84;;;23.20;32.27
63009;BME280;49099;28.428;-16.488;2023-04-01T06:58:26;99034.22;;;23.21;32.44
63009;BME280;49099;28.428;-16.488;2023-04-01T07:01:02;99040.63;;;23.17;31.85
63009;BME280;49099;28.428;-16.488;2023-04-01T07:03:35;99036.59;;;23.23;32.18
63009;BME280;49099;28.428;-16.488;2023-04-01T07:06:06;99030.28;;;23.31;32.33
63009;BME280;49099;28.428;-16.488;2023-04-01T07:08:38;99031.53;;;23.33;31.13
63009;BME280;49099;28.428;-16.488;2023-04-01T07:11:25;99032.31;;;23.34;29.65
63009;BME280;49099;28.428;-16.488;2023-04-01T07:16:51;99044.53;;;23.40;29.78
63009;BME280;49099;28.428;-16.488;2023-04-01T07:19:31;99046.09;;;23.41;31.06
63009;BME280;49099;28.428;-16.488;2023-04-01T07:22:05;99036.63;;;23.47;30.91
63009;BME280;49099;28.428;-16.488;2023-04-01T07:24:41;99037.28;;;23.32;29.34
63009;BME280;49099;28.428;-16.488;2023-04-01T07:27:11;99042.50;;;23.37;30.61
63009;BME280;49099;28.428;-16.488;2023-04-01T07:29:39;99045.78;;;23.43;30.45
63009;BME280;49099;28.428;-16.488;2023-04-01T07:54:11;99072.75;;;23.51;27.96
63009;BME280;49099;28.428;-16.488;2023-04-01T07:59:28;99066.25;;;23.65;28.55
63009;BME280;49099;28.428;-16.488;2023-04-01T08:07:40;99081.53;;;23.94;30.96
63009;BME280;49099;28.428;-16.488;2023-04-01T08:13:01;99080.06;;;23.96;31.43
63009;BME280;49099;28.428;-16.488;2023-04-01T08:20:59;99083.25;;;23.98;31.97
63009;BME280;49099;28.428;-16.488;2023-04-01T08:23:38;99081.22;;;24.07;31.89
63009;BME280;49099;28.428;-16.488;2023-04-01T08:32:00;99096.34;;;24.21;33.53
63009;BME280;49099;28.428;-16.488;2023-04-01T08:34:55;99102.09;;;24.07;37.14
63009;BME280;49099;28.428;-16.488;2023-04-01T08:37:29;99107.59;;;23.86;38.75
63009;BME280;49099;28.428;-16.488;2023-04-01T08:48:19;99113.22;;;23.81;40.59
63009;BME280;49099;28.428;-16.488;2023-04-01T08:54:26;99105.78;;;23.78;40.14
63009;BME280;49099;28.428;-16.488;2023-04-01T08:57:18;99108.84;;;23.76;40.97
63009;BME280;49099;28.428;-16.488;2023-04-01T08:59:50;99119.13;;;23.83;40.75
63009;BME280;49099;28.428;-16.488;2023-04-01T09:08:08;99111.88;;;23.75;38.48
63009;BME280;49099;28.428;-16.488;2023-04-01T09:16:59;99124.78;;;23.90;37.24
63009;BME280;49099;28.428;-16.488;2023-04-01T09:28:19;99129.75;;;24.00;36.87
63009;BME280;49099;28.428;-16.488;2023-04-01T09:42:28;99137.00;;;24.57;37.33
63009;BME280;49099;28.428;-16.488;2023-04-01T09:45:07;99129.09;;;24.64;37.21
63009;BME280;49099;28.428;-16.488;2023-04-01T09:50:27;99129.19;;;24.80;37.35
63009;BME280;49099;28.428;-16.488;2023-04-01T09:53:14;99133.44;;;24.93;36.62
63009;BME280;49099;28.428;-16.488;2023-04-01T09:56:15;99137.16;;;25.01;36.74
63009;BME280;49099;28.428;-16.488;2023-04-01T10:02:19;99144.41;;;25.09;40.14
63009;BME280;49099;28.428;-16.488;2023-04-01T10:15:48;99142.09;;;25.23;40.01
63009;BME280;49099;28.428;-16.488;2023-04-01T10:43:43;99138.94;;;25.77;33.46
63009;BME280;49099;28.428;-16.488;2023-04-01T10:49:16;99140.88;;;25.93;31.09
63009;BME280;49099;28.428;-16.488;2023-04-01T10:52:05;99143.59;;;25.93;34.89
63009;BME280;49099;28.428;-16.488;2023-04-01T10:55:25;99130.59;;;25.86;36.15
63009;BME280;49099;28.428;-16.488;2023-04-01T11:15:06;99129.81;;;25.86;39.69
63009;BME280;49099;28.428;-16.488;2023-04-01T11:26:33;99113.50;;;26.17;36.06
63009;BME280;49099;28.428;-16.488;2023-04-01T11:29:11;99115.09;;;26.18;36.57
63009;BME280;49099;28.428;-16.488;2023-04-01T11:46:19;99102.09;;;26.27;32.75
63009;BME280;49099;28.428;-16.488;2023-04-01T12:00:20;99093.47;;;26.57;39.56
63009;BME280;49099;28.428;-16.488;2023-04-01T12:08:36;99096.09;;;26.37;42.81
63009;BME280;49099;28.428;-16.488;2023-04-01T12:11:15;99096.41;;;26.17;43.93
63009;BME280;49099;28.428;-16.488;2023-04-01T12:16:58;99080.72;;;25.94;45.33
63009;BME280;49099;28.428;-16.488;2023-04-01T12:28:25;99081.56;;;26.14;44.83
63009;BME280;49099;28.428;-16.488;2023-04-01T12:31:30;99080.00;;;26.13;45.13
63009;BME280;49099;28.428;-16.488;2023-04-01T12:37:05;99072.91;;;26.24;45.41
63009;BME280;49099;28.428;-16.488;2023-04-01T12:48:55;99075.13;;;25.71;45.98
63009;BME280;49099;28.428;-16.488;2023-04-01T13:13:44;99046.75;;;25.56;48.13
63009;BME280;49099;28.428;-16.488;2023-04-01T13:16:37;99044.41;;;25.55;47.70
63009;BME280;49099;28.428;-16.488;2023-04-01T13:24:55;99040.00;;;25.35;49.25
63009;BME280;49099;28.428;-16.488;2023-04-01T13:27:44;99039.75;;;25.40;49.18
63009;BME280;49099;28.428;-16.488;2023-04-01T13:32:53;99031.56;;;25.24;49.38
63009;BME280;49099;28.428;-16.488;2023-04-01T13:48:33;99025.78;;;25.25;49.47
63009;BME280;49099;28.428;-16.488;2023-04-01T14:15:25;99004.47;;;25.71;48.49
63009;BME280;49099;28.428;-16.488;2023-04-01T14:24:03;98999.56;;;25.93;48.38
63009;BME280;49099;28.428;-16.488;2023-04-01T14:29:37;98995.75;;;25.97;48.35
63009;BME280;49099;28.428;-16.488;2023-04-01T14:34:45;98993.22;;;25.89;48.58
63009;BME280;49099;28.428;-16.488;2023-04-01T14:50:54;98994.28;;;25.68;48.98
63009;BME280;49099;28.428;-16.488;2023-04-01T14:56:00;98973.69;;;25.83;49.21
63009;BME280;49099;28.428;-16.488;2023-04-01T14:58:50;98976.38;;;25.99;48.94
63009;BME280;49099;28.428;-16.488;2023-04-01T15:04:28;98963.03;;;26.29;48.31
63009;BME280;49099;28.428;-16.488;2023-04-01T15:10:25;98959.34;;;26.76;46.85
63009;BME280;49099;28.428;-16.488;2023-04-01T15:13:11;98958.69;;;26.82;46.82
63009;BME280;49099;28.428;-16.488;2023-04-01T15:15:46;98959.75;;;26.97;46.51
63009;BME280;49099;28.428;-16.488;2023-04-01T15:23:55;98956.53;;;27.57;44.97
63009;BME280;49099;28.428;-16.488;2023-04-01T15:37:15;98949.44;;;27.75;44.73
63009;BME280;49099;28.428;-16.488;2023-04-01T15:39:54;98953.13;;;27.63;44.77
63009;BME280;49099;28.428;-16.488;2023-04-01T15:59:26;98934.09;;;27.93;44.05
63009;BME280;49099;28.428;-16.488;2023-04-01T16:02:31;98928.34;;;27.98;44.13
63009;BME280;49099;28.428;-16.488;2023-04-01T16:16:19;98927.06;;;28.19;43.48
63009;BME280;49099;28.428;-16.488;2023-04-01T16:19:07;98919.34;;;27.94;44.03
63009;BME280;49099;28.428;-16.488;2023-04-01T16:22:02;98918.13;;;27.92;44.07
63009;BME280;49099;28.428;-16.488;2023-04-01T16:24:45;98920.63;;;27.77;44.02
63009;BME280;49099;28.428;-16.488;2023-04-01T16:32:45;98920.56;;;28.00;43.59
63009;BME280;49099;28.428;-16.488;2023-04-01T16:35:36;98919.50;;;28.09;43.72
63009;BME280;49099;28.428;-16.488;2023-04-01T16:38:22;98917.31;;;28.18;43.11
63009;BME280;49099;28.428;-16.488;2023-04-01T16:41:38;98915.22;;;28.08;43.42
63009;BME280;49099;28.428;-16.488;2023-04-01T16:43:53;98912.44;;;28.04;43.72
63009;BME280;49099;28.428;-16.488;2023-04-01T16:54:35;98907.88;;;28.12;43.57
63009;BME280;49099;28.428;-16.488;2023-04-01T17:10:25;98912.47;;;28.34;42.68
63009;BME280;49099;28.428;-16.488;2023-04-01T17:21:20;98908.84;;;27.70;44.26
63009;BME280;49099;28.428;-16.488;2023-04-01T17:23:59;98907.28;;;27.69;44.32
63009;BME280;49099;28.428;-16.488;2023-04-01T17:32:10;98915.66;;;28.10;43.56
63009;BME280;49099;28.428;-16.488;2023-04-01T17:40:34;98911.94;;;27.95;43.63
63009;BME280;49099;28.428;-16.488;2023-04-01T17:43:27;98911.22;;;28.01;43.58
63009;BME280;49099;28.428;-16.488;2023-04-01T17:46:00;98903.16;;;28.09;43.42
63009;BME280;49099;28.428;-16.488;2023-04-01T17:48:45;98905.28;;;28.22;42.79
63009;BME280;49099;28.428;-16.488;2023-04-01T17:51:35;98909.34;;;28.06;43.18
63009;BME280;49099;28.428;-16.488;2023-04-01T17:59:57;98902.09;;;27.87;43.04
63009;BME280;49099;28.428;-16.488;2023-04-01T18:02:42;98904.28;;;27.77;43.41
63009;BME280;49099;28.428;-16.488;2023-04-01T18:05:39;98906.63;;;28.06;42.33
63009;BME280;49099;28.428;-16.488;2023-04-01T18:11:34;98901.38;;;27.93;42.57
63009;BME280;49099;28.428;-16.488;2023-04-01T18:20:02;98911.38;;;27.82;42.83
63009;BME280;49099;28.428;-16.488;2023-04-01T18:25:36;98898.84;;;27.77;42.73
63009;BME280;49099;28.428;-16.488;2023-04-01T18:28:25;98904.34;;;27.81;42.34
63009;BME280;49099;28.428;-16.488;2023-04-01T18:33:48;98902.09;;;27.87;42.75
63009;BME280;49099;28.428;-16.488;2023-04-01T18:37:14;98906.50;;;27.95;42.80
63009;BME280;49099;28.428;-16.488;2023-04-01T18:39:42;98900.16;;;27.87;42.23
63009;BME280;49099;28.428;-16.488;2023-04-01T18:45:14;98903.41;;;27.70;42.86
63009;BME280;49099;28.428;-16.488;2023-04-01T18:47:51;98895.41;;;27.58;42.52
63009;BME280;49099;28.428;-16.488;2023-04-01T18:50:53;98901.28;;;27.33;43.30
63009;BME280;49099;28.428;-16.488;2023-04-01T18:56:06;98895.16;;;26.52;45.47
63009;BME280;49099;28.428;-16.488;2023-04-01T18:59:03;98904.00;;;26.29;46.51
63009;BME280;49099;28.428;-16.488;2023-04-01T19:07:00;98908.75;;;25.62;47.84
63009;BME280;49099;28.428;-16.488;2023-04-01T19:09:47;98905.44;;;25.53;48.08
63009;BME280;49099;28.428;-16.488;2023-04-01T19:15:08;98912.31;;;25.15;49.10
63009;BME280;49099;28.428;-16.488;2023-04-01T19:17:54;98921.78;;;24.93;49.90
63009;BME280;49099;28.428;-16.488;2023-04-01T19:20:49;98913.75;;;24.53;51.12
63009;BME280;49099;28.428;-16.488;2023-04-01T19:26:31;98913.88;;;24.04;52.27
63009;BME280;49099;28.428;-16.488;2023-04-01T19:32:10;98909.97;;;23.77;53.50
63009;BME280;49099;28.428;-16.488;2023-04-01T19:37:40;98925.66;;;23.59;53.88
63009;BME280;49099;28.428;-16.488;2023-04-01T19:43:36;98919.56;;;23.38;54.50
63009;BME280;49099;28.428;-16.488;2023-04-01T19:46:17;98921.25;;;23.30;54.83
63009;BME280;49099;28.428;-16.488;2023-04-01T19:52:06;98921.34;;;23.22;55.19
63009;BME280;49099;28.428;-16.488;2023-04-01T19:57:37;98930.56;;;23.08;55.54
63009;BME280;49099;28.428;-16.488;2023-04-01T20:00:06;98932.13;;;22.97;56.33
63009;BME280;49099;28.428;-16.488;2023-04-01T20:13:56;98953.63;;;22.40;58.10
63009;BME280;49099;28.428;-16.488;2023-04-01T20:19:26;98958.72;;;22.41;57.71
63009;BME280;49099;28.428;-16.488;2023-04-01T20:21:58;98956.47;;;22.43;57.30
63009;BME280;49099;28.428;-16.488;2023-04-01T20:27:14;98966.06;;;22.53;56.78
63009;BME280;49099;28.428;-16.488;2023-04-01T20:40:52;98975.88;;;22.16;58.84
63009;BME280;49099;28.428;-16.488;2023-04-01T20:43:40;98981.31;;;22.07;58.76
63009;BME280;49099;28.428;-16.488;2023-04-01T20:46:19;98981.56;;;21.93;59.45
63009;BME280;49099;28.428;-16.488;2023-04-01T20:51:30;98980.16;;;21.58;60.63
63009;BME280;49099;28.428;-16.488;2023-04-01T20:57:14;98995.41;;;21.54;60.49
63009;BME280;49099;28.428;-16.488;2023-04-01T21:08:12;99017.84;;;21.37;61.44
63009;BME280;49099;28.428;-16.488;2023-04-01T21:16:10;99016.44;;;21.22;62.24
63009;BME280;49099;28.428;-16.488;2023-04-01T21:27:19;99035.19;;;20.93;63.33
63009;BME280;49099;28.428;-16.488;2023-04-01T22:05:13;99032.81;;;21.17;60.29
63009;BME280;49099;28.428;-16.488;2023-04-01T22:07:51;99038.97;;;21.26;58.73
63009;BME280;49099;28.428;-16.488;2023-04-01T22:10:45;99038.00;;;21.39;56.63
63009;BME280;49099;28.428;-16.488;2023-04-01T22:13:20;99027.69;;;21.41;55.48
63009;BME280;49099;28.428;-16.488;2023-04-01T22:16:05;99023.22;;;21.46;54.46
63009;BME280;49099;28.428;-16.488;2023-04-01T22:18:46;99022.09;;;21.47;57.39
63009;BME280;49099;28.428;-16.488;2023-04-01T22:21:41;99024.75;;;21.55;55.93
63009;BME280;49099;28.428;-16.488;2023-04-01T22:27:42;99013.53;;;21.45;55.08
63009;BME280;49099;28.428;-16.488;2023-04-01T22:30:22;99014.19;;;21.41;54.82
63009;BME280;49099;28.428;-16.488;2023-04-01T22:33:38;99021.47;;;21.50;55.43
63009;BME280;49099;28.428;-16.488;2023-04-01T22:38:40;99004.91;;;21.60;55.27
63009;BME280;49099;28.428;-16.488;2023-04-01T22:41:22;99014.78;;;21.56;55.55
63009;BME280;49099;28.428;-16.488;2023-04-01T22:43:58;99021.19;;;21.42;55.39
63009;BME280;49099;28.428;-16.488;2023-04-01T22:50:07;99008.91;;;21.54;52.75
63009;BME280;49099;28.428;-16.488;2023-04-01T22:52:41;99009.72;;;21.46;50.06
63009;BME280;49099;28.428;-16.488;2023-04-01T22:55:28;99014.19;;;21.41;50.68
63009;BME280;49099;28.428;-16.488;2023-04-01T22:58:15;99002.66;;;21.32;51.88
63009;BME280;49099;28.428;-16.488;2023-04-01T23:00:52;99015.66;;;21.30;52.95
63009;BME280;49099;28.428;-16.488;2023-04-01T23:03:37;99003.44;;;21.33;51.83
63009;BME280;49099;28.428;-16.488;2023-04-01T23:06:27;99012.16;;;21.30;54.45
63009;BME280;49099;28.428;-16.488;2023-04-01T23:09:06;99000.88;;;21.36;55.38
63009;BME280;49099;28.428;-16.488;2023-04-01T23:25:35;98999.00;;;21.28;55.26
63009;BME280;49099;28.428;-16.488;2023-04-01T23:38:16;98987.09;;;21.12;53.55
63009;BME280;49099;28.428;-16.488;2023-04-01T23:40:44;98980.28;;;21.06;53.82
63009;BME280;49099;28.428;-16.488;2023-04-01T23:43:32;98978.09;;;20.91;55.52
63009;BME280;49099;28.428;-16.488;2023-04-01T23:46:03;98981.47;;;20.79;56.60
63009;BME280;49099;28.428;-16.488;2023-04-01T23:48:33;98972.56;;;20.78;56.99
63009;BME280;49099;28.428;-16.488;2023-04-01T23:51:03;98974.63;;;20.81;57.73
63009;BME280;49099;28.428;-16.488;2023-04-01T23:53:33;98976.22;;;20.82;56.12
63009;BME280;49099;28.428;-16.488;2023-04-01T23:56:02;98976.84;;;20.79;54.98
63009;BME280;49099;28.428;-16.488;2023-04-01T23:58:44;98972.09;;;20.76;56.06
